Absecon Highlands, New Jersey
Current Conditions -  °F | °C
As of 2:54 PM on Saturday 25 Oct 2014 (Local Time) from KACY Reporting Station
Clear Clear  
Wind Chill: 69°   Ceiling: Unl
Heat Index: 69°   Visibility: 10mi
Dew Point: 44°   Wind: 16mph
Humidity: 40%   Direction: 260°W
Pressure: 29.76"   Gusts: NA
Location:  39.4315°N, 74.5003°W
Report Text: KACY 251854Z 26014KT 10SM CLR 21/07 A2976 RMK AO2 SLP077 T02060067
Loading
Personal Weather Stations






























Interactive Weather Map
Tropical Storm Tracking
New forecast layout! Learn more

10-Day Weather Forecast

Advertisements
Track Severe Weather on mobile